sensor_id;sensor_type;location;lat;lon;timestamp;temperature;humidity
45765;DHT22;31474;45.332;10.230;2023-07-22T00:00:45;22.60;99.90
45765;DHT22;31474;45.332;10.230;2023-07-22T00:03:11;22.60;99.90
45765;DHT22;31474;45.332;10.230;2023-07-22T00:05:37;22.60;99.90
45765;DHT22;31474;45.332;10.230;2023-07-22T00:08:02;22.70;99.90
45765;DHT22;31474;45.332;10.230;2023-07-22T00:10:29;22.70;99.90
45765;DHT22;31474;45.332;10.230;2023-07-22T00:12:54;22.80;99.90
45765;DHT22;31474;45.332;10.230;2023-07-22T00:15:20;22.80;99.90
45765;DHT22;31474;45.332;10.230;2023-07-22T00:17:47;22.90;99.90
45765;DHT22;31474;45.332;10.230;2023-07-22T00:20:13;22.90;99.90
45765;DHT22;31474;45.332;10.230;2023-07-22T00:22:42;22.90;99.90
45765;DHT22;31474;45.332;10.230;2023-07-22T00:25:10;22.90;99.90
45765;DHT22;31474;45.332;10.230;2023-07-22T00:27:40;22.90;99.90
45765;DHT22;31474;45.332;10.230;2023-07-22T00:30:06;22.90;99.90
45765;DHT22;31474;45.332;10.230;2023-07-22T00:32:32;22.90;99.90
45765;DHT22;31474;45.332;10.230;2023-07-22T00:34:58;22.90;99.90
45765;DHT22;31474;45.332;10.230;2023-07-22T00:37:24;22.90;99.90
45765;DHT22;31474;45.332;10.230;2023-07-22T00:39:51;22.90;99.90
45765;DHT22;31474;45.332;10.230;2023-07-22T00:42:16;22.90;99.90
45765;DHT22;31474;45.332;10.230;2023-07-22T00:44:42;22.90;99.90
45765;DHT22;31474;45.332;10.230;2023-07-22T00:47:08;22.90;99.90
45765;DHT22;31474;45.332;10.230;2023-07-22T00:49:35;22.90;99.90
45765;DHT22;31474;45.332;10.230;2023-07-22T00:52:02;22.90;99.90
45765;DHT22;31474;45.332;10.230;2023-07-22T00:54:29;22.80;99.90
45765;DHT22;31474;45.332;10.230;2023-07-22T00:56:56;22.80;99.90
45765;DHT22;31474;45.332;10.230;2023-07-22T00:59:22;22.80;99.90
45765;DHT22;31474;45.332;10.230;2023-07-22T01:01:48;22.80;99.90
45765;DHT22;31474;45.332;10.230;2023-07-22T01:04:15;22.80;99.90
45765;DHT22;31474;45.332;10.230;2023-07-22T01:06:43;22.70;99.90
45765;DHT22;31474;45.332;10.230;2023-07-22T01:09:09;22.80;99.90
45765;DHT22;31474;45.332;10.230;2023-07-22T01:11:35;22.70;99.90
45765;DHT22;31474;45.332;10.230;2023-07-22T01:14:01;22.70;99.90
45765;DHT22;31474;45.332;10.230;2023-07-22T01:16:28;22.70;99.90
45765;DHT22;31474;45.332;10.230;2023-07-22T01:18:54;22.70;99.90
45765;DHT22;31474;45.332;10.230;2023-07-22T01:21:23;22.70;99.90
45765;DHT22;31474;45.332;10.230;2023-07-22T01:23:49;22.60;99.90
45765;DHT22;31474;45.332;10.230;2023-07-22T01:26:15;22.60;99.90
45765;DHT22;31474;45.332;10.230;2023-07-22T01:28:41;22.60;99.90
45765;DHT22;31474;45.332;10.230;2023-07-22T01:31:07;22.60;99.90
45765;DHT22;31474;45.332;10.230;2023-07-22T01:33:32;22.60;99.90
45765;DHT22;31474;45.332;10.230;2023-07-22T01:36:00;22.60;99.90
45765;DHT22;31474;45.332;10.230;2023-07-22T01:38:26;22.50;99.90
45765;DHT22;31474;45.332;10.230;2023-07-22T01:40:51;22.50;99.90
45765;DHT22;31474;45.332;10.230;2023-07-22T01:43:18;22.50;99.90
45765;DHT22;31474;45.332;10.230;2023-07-22T01:45:43;22.50;99.90
45765;DHT22;31474;45.332;10.230;2023-07-22T01:48:09;22.50;99.90
45765;DHT22;31474;45.332;10.230;2023-07-22T01:50:35;22.50;99.90
45765;DHT22;31474;45.332;10.230;2023-07-22T01:53:00;22.50;99.90
45765;DHT22;31474;45.332;10.230;2023-07-22T01:55:26;22.50;99.90
45765;DHT22;31474;45.332;10.230;2023-07-22T01:57:52;22.50;99.90
45765;DHT22;31474;45.332;10.230;2023-07-22T02:00:17;22.50;99.90
45765;DHT22;31474;45.332;10.230;2023-07-22T02:02:43;22.50;99.90
45765;DHT22;31474;45.332;10.230;2023-07-22T02:05:09;22.40;99.90
45765;DHT22;31474;45.332;10.230;2023-07-22T02:07:36;22.50;99.90
45765;DHT22;31474;45.332;10.230;2023-07-22T02:10:01;22.40;99.90
45765;DHT22;31474;45.332;10.230;2023-07-22T02:12:28;22.40;99.90
45765;DHT22;31474;45.332;10.230;2023-07-22T02:14:54;22.40;99.90
45765;DHT22;31474;45.332;10.230;2023-07-22T02:17:20;22.40;99.90
45765;DHT22;31474;45.332;10.230;2023-07-22T02:19:46;22.40;99.90
45765;DHT22;31474;45.332;10.230;2023-07-22T02:22:11;22.30;99.90
45765;DHT22;31474;45.332;10.230;2023-07-22T02:24:37;22.30;99.90
45765;DHT22;31474;45.332;10.230;2023-07-22T02:27:04;22.30;99.90
45765;DHT22;31474;45.332;10.230;2023-07-22T02:29:30;22.30;99.90
45765;DHT22;31474;45.332;10.230;2023-07-22T02:31:59;22.30;99.90
45765;DHT22;31474;45.332;10.230;2023-07-22T02:34:24;22.30;99.90
45765;DHT22;31474;45.332;10.230;2023-07-22T02:36:50;22.30;99.90
45765;DHT22;31474;45.332;10.230;2023-07-22T02:39:16;22.30;99.90
45765;DHT22;31474;45.332;10.230;2023-07-22T02:41:41;22.40;99.90
45765;DHT22;31474;45.332;10.230;2023-07-22T02:44:07;22.30;99.90
45765;DHT22;31474;45.332;10.230;2023-07-22T02:46:33;22.30;99.90
45765;DHT22;31474;45.332;10.230;2023-07-22T02:48:59;22.30;99.90
45765;DHT22;31474;45.332;10.230;2023-07-22T02:51:25;22.30;99.90
45765;DHT22;31474;45.332;10.230;2023-07-22T02:53:50;22.30;99.90
45765;DHT22;31474;45.332;10.230;2023-07-22T02:56:16;22.30;99.90
45765;DHT22;31474;45.332;10.230;2023-07-22T02:58:42;22.20;99.90
45765;DHT22;31474;45.332;10.230;2023-07-22T03:01:09;22.20;99.90
45765;DHT22;31474;45.332;10.230;2023-07-22T03:03:36;22.30;99.90
45765;DHT22;31474;45.332;10.230;2023-07-22T03:06:02;22.30;99.90
45765;DHT22;31474;45.332;10.230;2023-07-22T03:08:29;22.30;99.90
45765;DHT22;31474;45.332;10.230;2023-07-22T03:10:55;22.30;99.90
45765;DHT22;31474;45.332;10.230;2023-07-22T03:13:21;22.30;99.90
45765;DHT22;31474;45.332;10.230;2023-07-22T03:15:47;22.30;99.90
45765;DHT22;31474;45.332;10.230;2023-07-22T03:18:13;22.30;99.90
45765;DHT22;31474;45.332;10.230;2023-07-22T03:20:39;22.30;99.90
45765;DHT22;31474;45.332;10.230;2023-07-22T03:23:05;22.30;99.90
45765;DHT22;31474;45.332;10.230;2023-07-22T03:25:32;22.30;99.90
45765;DHT22;31474;45.332;10.230;2023-07-22T03:28:03;22.40;99.90
45765;DHT22;31474;45.332;10.230;2023-07-22T03:30:30;22.50;99.90
45765;DHT22;31474;45.332;10.230;2023-07-22T03:32:56;22.50;99.90
45765;DHT22;31474;45.332;10.230;2023-07-22T03:35:21;22.60;99.90
45765;DHT22;31474;45.332;10.230;2023-07-22T03:37:47;22.50;99.90
45765;DHT22;31474;45.332;10.230;2023-07-22T03:40:13;22.60;99.90
45765;DHT22;31474;45.332;10.230;2023-07-22T03:42:50;22.40;99.90
45765;DHT22;31474;45.332;10.230;2023-07-22T03:45:16;22.50;99.90
45765;DHT22;31474;45.332;10.230;2023-07-22T03:47:44;22.30;99.90
45765;DHT22;31474;45.332;10.230;2023-07-22T03:50:10;22.40;99.90
45765;DHT22;31474;45.332;10.230;2023-07-22T03:52:35;22.40;99.90
45765;DHT22;31474;45.332;10.230;2023-07-22T03:55:02;22.40;99.90
45765;DHT22;31474;45.332;10.230;2023-07-22T03:57:28;22.30;99.90
45765;DHT22;31474;45.332;10.230;2023-07-22T03:59:55;22.30;99.90
45765;DHT22;31474;45.332;10.230;2023-07-22T04:02:21;22.40;99.90
45765;DHT22;31474;45.332;10.230;2023-07-22T04:04:47;22.30;99.90
45765;DHT22;31474;45.332;10.230;2023-07-22T04:07:12;22.30;99.90
45765;DHT22;31474;45.332;10.230;2023-07-22T04:09:38;22.30;99.90
45765;DHT22;31474;45.332;10.230;2023-07-22T04:12:04;22.30;99.90
45765;DHT22;31474;45.332;10.230;2023-07-22T04:14:30;22.30;99.90
45765;DHT22;31474;45.332;10.230;2023-07-22T04:16:56;22.20;99.90
45765;DHT22;31474;45.332;10.230;2023-07-22T04:19:21;22.30;99.90
45765;DHT22;31474;45.332;10.230;2023-07-22T04:21:47;22.30;99.90
45765;DHT22;31474;45.332;10.230;2023-07-22T04:24:13;22.30;99.90
45765;DHT22;31474;45.332;10.230;2023-07-22T04:26:40;22.20;99.90
45765;DHT22;31474;45.332;10.230;2023-07-22T04:29:05;22.20;99.90
45765;DHT22;31474;45.332;10.230;2023-07-22T04:31:33;22.20;99.90
45765;DHT22;31474;45.332;10.230;2023-07-22T04:33:59;22.20;99.90
45765;DHT22;31474;45.332;10.230;2023-07-22T04:36:24;22.20;99.90
45765;DHT22;31474;45.332;10.230;2023-07-22T04:38:50;22.20;99.90
45765;DHT22;31474;45.332;10.230;2023-07-22T04:41:16;22.20;99.90
45765;DHT22;31474;45.332;10.230;2023-07-22T04:43:41;22.30;99.90
45765;DHT22;31474;45.332;10.230;2023-07-22T04:46:07;22.20;99.90
45765;DHT22;31474;45.332;10.230;2023-07-22T04:48:34;22.30;99.90
45765;DHT22;31474;45.332;10.230;2023-07-22T04:50:59;22.30;99.90
45765;DHT22;31474;45.332;10.230;2023-07-22T04:53:25;22.30;99.90
45765;DHT22;31474;45.332;10.230;2023-07-22T04:55:51;22.30;99.90
45765;DHT22;31474;45.332;10.230;2023-07-22T04:58:17;22.30;99.90
45765;DHT22;31474;45.332;10.230;2023-07-22T05:00:43;22.40;99.90
45765;DHT22;31474;45.332;10.230;2023-07-22T05:03:08;22.50;99.90
45765;DHT22;31474;45.332;10.230;2023-07-22T05:05:34;22.60;99.90
45765;DHT22;31474;45.332;10.230;2023-07-22T05:08:01;22.50;99.90
45765;DHT22;31474;45.332;10.230;2023-07-22T05:10:27;22.60;99.90
45765;DHT22;31474;45.332;10.230;2023-07-22T05:12:54;22.60;99.90
45765;DHT22;31474;45.332;10.230;2023-07-22T05:15:22;22.60;99.90
45765;DHT22;31474;45.332;10.230;2023-07-22T05:17:48;22.50;99.90
45765;DHT22;31474;45.332;10.230;2023-07-22T05:20:13;22.60;99.90
45765;DHT22;31474;45.332;10.230;2023-07-22T05:22:39;22.60;99.90
45765;DHT22;31474;45.332;10.230;2023-07-22T05:25:06;22.60;99.90
45765;DHT22;31474;45.332;10.230;2023-07-22T05:27:32;22.60;99.90
45765;DHT22;31474;45.332;10.230;2023-07-22T05:29:58;22.70;99.90
45765;DHT22;31474;45.332;10.230;2023-07-22T05:32:24;22.60;99.90
45765;DHT22;31474;45.332;10.230;2023-07-22T05:34:50;22.60;99.90
45765;DHT22;31474;45.332;10.230;2023-07-22T05:37:15;22.80;99.90
45765;DHT22;31474;45.332;10.230;2023-07-22T05:39:41;22.90;99.90
45765;DHT22;31474;45.332;10.230;2023-07-22T05:42:07;22.90;99.90
45765;DHT22;31474;45.332;10.230;2023-07-22T05:44:32;23.10;99.90
45765;DHT22;31474;45.332;10.230;2023-07-22T05:46:58;23.20;99.90
45765;DHT22;31474;45.332;10.230;2023-07-22T05:49:24;23.50;99.90
45765;DHT22;31474;45.332;10.230;2023-07-22T05:51:50;23.50;99.90
45765;DHT22;31474;45.332;10.230;2023-07-22T05:54:16;23.50;99.90
45765;DHT22;31474;45.332;10.230;2023-07-22T05:56:42;23.70;99.90
45765;DHT22;31474;45.332;10.230;2023-07-22T05:59:08;23.80;99.90
45765;DHT22;31474;45.332;10.230;2023-07-22T06:01:33;23.80;99.90
45765;DHT22;31474;45.332;10.230;2023-07-22T06:04:00;23.90;99.90
45765;DHT22;31474;45.332;10.230;2023-07-22T06:06:26;24.00;99.90
45765;DHT22;31474;45.332;10.230;2023-07-22T06:08:52;24.00;99.90
45765;DHT22;31474;45.332;10.230;2023-07-22T06:11:18;24.00;99.90
45765;DHT22;31474;45.332;10.230;2023-07-22T06:13:43;24.00;99.90
45765;DHT22;31474;45.332;10.230;2023-07-22T06:16:09;24.10;99.90
45765;DHT22;31474;45.332;10.230;2023-07-22T06:18:35;24.20;99.90
45765;DHT22;31474;45.332;10.230;2023-07-22T06:21:00;24.40;99.90
45765;DHT22;31474;45.332;10.230;2023-07-22T06:23:26;24.50;99.90
45765;DHT22;31474;45.332;10.230;2023-07-22T06:25:52;24.20;99.90
45765;DHT22;31474;45.332;10.230;2023-07-22T06:28:18;24.10;99.90
45765;DHT22;31474;45.332;10.230;2023-07-22T06:30:43;24.00;99.90
45765;DHT22;31474;45.332;10.230;2023-07-22T06:33:09;24.10;99.90
45765;DHT22;31474;45.332;10.230;2023-07-22T06:35:35;24.40;99.90
45765;DHT22;31474;45.332;10.230;2023-07-22T06:38:01;24.50;99.90
45765;DHT22;31474;45.332;10.230;2023-07-22T06:40:26;24.50;99.90
45765;DHT22;31474;45.332;10.230;2023-07-22T06:42:52;24.60;99.90
45765;DHT22;31474;45.332;10.230;2023-07-22T06:45:19;24.80;99.90
45765;DHT22;31474;45.332;10.230;2023-07-22T06:47:44;25.00;99.90
45765;DHT22;31474;45.332;10.230;2023-07-22T06:50:10;24.90;99.90
45765;DHT22;31474;45.332;10.230;2023-07-22T06:52:36;25.10;99.90
45765;DHT22;31474;45.332;10.230;2023-07-22T06:55:02;25.00;99.90
45765;DHT22;31474;45.332;10.230;2023-07-22T06:57:29;25.00;99.90
45765;DHT22;31474;45.332;10.230;2023-07-22T06:59:55;24.90;99.90
45765;DHT22;31474;45.332;10.230;2023-07-22T07:02:21;24.80;99.90
45765;DHT22;31474;45.332;10.230;2023-07-22T07:04:47;24.80;99.90
45765;DHT22;31474;45.332;10.230;2023-07-22T07:07:13;24.90;99.90
45765;DHT22;31474;45.332;10.230;2023-07-22T07:09:39;25.10;99.90
45765;DHT22;31474;45.332;10.230;2023-07-22T07:12:06;25.20;99.90
45765;DHT22;31474;45.332;10.230;2023-07-22T07:14:33;25.30;99.90
45765;DHT22;31474;45.332;10.230;2023-07-22T07:16:59;25.40;99.90
45765;DHT22;31474;45.332;10.230;2023-07-22T07:19:26;25.50;99.90
45765;DHT22;31474;45.332;10.230;2023-07-22T07:21:52;25.50;99.90
45765;DHT22;31474;45.332;10.230;2023-07-22T07:24:17;25.50;99.90
45765;DHT22;31474;45.332;10.230;2023-07-22T07:26:43;25.80;99.90
45765;DHT22;31474;45.332;10.230;2023-07-22T07:29:09;25.90;99.90
45765;DHT22;31474;45.332;10.230;2023-07-22T07:31:34;25.90;99.90
45765;DHT22;31474;45.332;10.230;2023-07-22T07:34:00;25.90;99.90
45765;DHT22;31474;45.332;10.230;2023-07-22T07:36:26;25.80;99.90
45765;DHT22;31474;45.332;10.230;2023-07-22T07:38:52;25.60;99.90
45765;DHT22;31474;45.332;10.230;2023-07-22T07:41:18;25.50;99.90
45765;DHT22;31474;45.332;10.230;2023-07-22T07:43:44;25.40;99.90
45765;DHT22;31474;45.332;10.230;2023-07-22T07:48:46;25.60;99.90
45765;DHT22;31474;45.332;10.230;2023-07-22T07:51:16;25.50;99.90
45765;DHT22;31474;45.332;10.230;2023-07-22T07:53:43;25.50;99.90
45765;DHT22;31474;45.332;10.230;2023-07-22T07:56:10;25.30;99.90
45765;DHT22;31474;45.332;10.230;2023-07-22T07:58:36;25.30;99.90
45765;DHT22;31474;45.332;10.230;2023-07-22T08:01:02;25.30;99.90
45765;DHT22;31474;45.332;10.230;2023-07-22T08:03:28;25.30;99.90
45765;DHT22;31474;45.332;10.230;2023-07-22T08:05:54;25.20;99.90
45765;DHT22;31474;45.332;10.230;2023-07-22T08:08:21;25.30;99.90
45765;DHT22;31474;45.332;10.230;2023-07-22T08:10:46;25.30;99.90
45765;DHT22;31474;45.332;10.230;2023-07-22T08:13:12;25.40;99.90
45765;DHT22;31474;45.332;10.230;2023-07-22T08:15:37;25.60;99.90
45765;DHT22;31474;45.332;10.230;2023-07-22T08:18:03;25.60;99.90
45765;DHT22;31474;45.332;10.230;2023-07-22T08:20:29;25.70;99.90
45765;DHT22;31474;45.332;10.230;2023-07-22T08:22:56;25.60;99.90
45765;DHT22;31474;45.332;10.230;2023-07-22T08:25:21;25.60;99.90
45765;DHT22;31474;45.332;10.230;2023-07-22T08:27:47;25.60;99.90
45765;DHT22;31474;45.332;10.230;2023-07-22T08:30:13;25.80;99.90
45765;DHT22;31474;45.332;10.230;2023-07-22T08:32:38;26.20;99.90
45765;DHT22;31474;45.332;10.230;2023-07-22T08:35:04;26.20;99.90
45765;DHT22;31474;45.332;10.230;2023-07-22T08:37:31;26.30;99.90
45765;DHT22;31474;45.332;10.230;2023-07-22T08:39:57;26.50;99.90
45765;DHT22;31474;45.332;10.230;2023-07-22T08:42:23;26.70;99.90
45765;DHT22;31474;45.332;10.230;2023-07-22T08:44:53;26.90;99.90
45765;DHT22;31474;45.332;10.230;2023-07-22T08:47:22;27.10;99.90
45765;DHT22;31474;45.332;10.230;2023-07-22T08:49:52;27.40;99.90
45765;DHT22;31474;45.332;10.230;2023-07-22T08:52:22;27.40;99.90
45765;DHT22;31474;45.332;10.230;2023-07-22T08:54:49;27.60;99.90
45765;DHT22;31474;45.332;10.230;2023-07-22T08:57:15;27.90;99.90
45765;DHT22;31474;45.332;10.230;2023-07-22T08:59:41;27.90;99.90
45765;DHT22;31474;45.332;10.230;2023-07-22T09:02:12;27.60;99.90
45765;DHT22;31474;45.332;10.230;2023-07-22T09:04:39;27.40;99.90
45765;DHT22;31474;45.332;10.230;2023-07-22T09:07:06;27.40;99.90
45765;DHT22;31474;45.332;10.230;2023-07-22T09:09:34;27.30;99.90
45765;DHT22;31474;45.332;10.230;2023-07-22T09:12:00;27.20;99.90
45765;DHT22;31474;45.332;10.230;2023-07-22T09:14:27;27.50;99.90
45765;DHT22;31474;45.332;10.230;2023-07-22T09:16:53;27.50;99.90
45765;DHT22;31474;45.332;10.230;2023-07-22T09:19:19;27.60;99.90
45765;DHT22;31474;45.332;10.230;2023-07-22T09:21:44;27.90;99.90
45765;DHT22;31474;45.332;10.230;2023-07-22T09:26:46;27.90;99.90
45765;DHT22;31474;45.332;10.230;2023-07-22T09:29:12;27.70;99.90
45765;DHT22;31474;45.332;10.230;2023-07-22T09:31:52;27.70;99.90
45765;DHT22;31474;45.332;10.230;2023-07-22T09:34:18;27.50;99.70
45765;DHT22;31474;45.332;10.230;2023-07-22T09:36:57;27.50;99.90
45765;DHT22;31474;45.332;10.230;2023-07-22T09:39:26;27.80;99.90
45765;DHT22;31474;45.332;10.230;2023-07-22T09:41:51;28.20;99.90
45765;DHT22;31474;45.332;10.230;2023-07-22T09:44:18;28.30;99.90
45765;DHT22;31474;45.332;10.230;2023-07-22T09:46:48;28.10;99.90
45765;DHT22;31474;45.332;10.230;2023-07-22T09:49:16;28.00;99.40
45765;DHT22;31474;45.332;10.230;2023-07-22T09:51:42;27.70;99.80
45765;DHT22;31474;45.332;10.230;2023-07-22T09:54:08;27.60;99.90
45765;DHT22;31474;45.332;10.230;2023-07-22T09:56:44;27.40;99.90
45765;DHT22;31474;45.332;10.230;2023-07-22T09:59:11;27.20;99.90
45765;DHT22;31474;45.332;10.230;2023-07-22T10:01:39;27.20;99.90
45765;DHT22;31474;45.332;10.230;2023-07-22T10:04:05;27.50;99.90
45765;DHT22;31474;45.332;10.230;2023-07-22T10:06:33;27.50;99.90
45765;DHT22;31474;45.332;10.230;2023-07-22T10:09:03;27.50;99.90
45765;DHT22;31474;45.332;10.230;2023-07-22T10:11:33;27.40;99.90
45765;DHT22;31474;45.332;10.230;2023-07-22T10:13:59;27.20;99.90
45765;DHT22;31474;45.332;10.230;2023-07-22T10:16:27;27.00;99.90
45765;DHT22;31474;45.332;10.230;2023-07-22T10:18:54;26.90;99.90
45765;DHT22;31474;45.332;10.230;2023-07-22T10:21:21;26.80;99.90
45765;DHT22;31474;45.332;10.230;2023-07-22T10:23:48;26.70;99.90
45765;DHT22;31474;45.332;10.230;2023-07-22T10:26:18;26.70;99.90
45765;DHT22;31474;45.332;10.230;2023-07-22T10:28:47;26.50;99.90
45765;DHT22;31474;45.332;10.230;2023-07-22T10:31:14;26.50;99.90
45765;DHT22;31474;45.332;10.230;2023-07-22T10:33:45;26.30;99.90
45765;DHT22;31474;45.332;10.230;2023-07-22T10:36:16;26.30;99.90
45765;DHT22;31474;45.332;10.230;2023-07-22T10:38:42;26.20;99.90
45765;DHT22;31474;45.332;10.230;2023-07-22T10:41:15;26.10;99.90
45765;DHT22;31474;45.332;10.230;2023-07-22T10:43:57;26.00;99.90
45765;DHT22;31474;45.332;10.230;2023-07-22T10:46:37;25.90;99.90
45765;DHT22;31474;45.332;10.230;2023-07-22T10:49:15;25.90;99.90
45765;DHT22;31474;45.332;10.230;2023-07-22T10:51:41;25.80;99.90
45765;DHT22;31474;45.332;10.230;2023-07-22T10:54:13;25.70;99.90
45765;DHT22;31474;45.332;10.230;2023-07-22T10:56:45;25.60;99.90
45765;DHT22;31474;45.332;10.230;2023-07-22T10:59:12;25.40;99.90
45765;DHT22;31474;45.332;10.230;2023-07-22T11:01:39;25.50;99.90
45765;DHT22;31474;45.332;10.230;2023-07-22T11:04:21;25.70;99.90
45765;DHT22;31474;45.332;10.230;2023-07-22T11:12:21;26.30;99.90
45765;DHT22;31474;45.332;10.230;2023-07-22T11:14:51;26.20;99.90
45765;DHT22;31474;45.332;10.230;2023-07-22T11:17:27;26.40;99.90
45765;DHT22;31474;45.332;10.230;2023-07-22T11:19:56;26.30;99.90
45765;DHT22;31474;45.332;10.230;2023-07-22T11:22:21;26.50;99.90
45765;DHT22;31474;45.332;10.230;2023-07-22T11:24:47;26.40;99.90
45765;DHT22;31474;45.332;10.230;2023-07-22T11:27:12;26.40;99.90
45765;DHT22;31474;45.332;10.230;2023-07-22T11:29:38;26.40;99.90
45765;DHT22;31474;45.332;10.230;2023-07-22T11:32:05;26.40;99.90
45765;DHT22;31474;45.332;10.230;2023-07-22T11:34:31;26.50;99.90
45765;DHT22;31474;45.332;10.230;2023-07-22T11:36:57;26.60;99.90
45765;DHT22;31474;45.332;10.230;2023-07-22T11:39:25;26.50;99.90
45765;DHT22;31474;45.332;10.230;2023-07-22T11:41:52;26.60;99.90
45765;DHT22;31474;45.332;10.230;2023-07-22T11:44:20;26.50;99.90
45765;DHT22;31474;45.332;10.230;2023-07-22T11:46:57;26.70;99.90
45765;DHT22;31474;45.332;10.230;2023-07-22T11:49:28;26.60;99.90
45765;DHT22;31474;45.332;10.230;2023-07-22T11:51:58;26.60;99.90
45765;DHT22;31474;45.332;10.230;2023-07-22T11:54:25;26.70;99.90
45765;DHT22;31474;45.332;10.230;2023-07-22T11:56:51;26.80;99.90
45765;DHT22;31474;45.332;10.230;2023-07-22T11:59:17;27.00;99.90
45765;DHT22;31474;45.332;10.230;2023-07-22T12:01:44;27.00;99.90
45765;DHT22;31474;45.332;10.230;2023-07-22T12:04:12;27.00;99.90
45765;DHT22;31474;45.332;10.230;2023-07-22T12:06:38;27.20;99.90
45765;DHT22;31474;45.332;10.230;2023-07-22T12:09:04;27.20;99.90
45765;DHT22;31474;45.332;10.230;2023-07-22T12:11:33;27.30;99.90
45765;DHT22;31474;45.332;10.230;2023-07-22T12:14:13;27.40;99.90
45765;DHT22;31474;45.332;10.230;2023-07-22T12:16:40;27.40;99.90
45765;DHT22;31474;45.332;10.230;2023-07-22T12:19:07;27.50;99.90
45765;DHT22;31474;45.332;10.230;2023-07-22T12:21:33;27.40;99.90
45765;DHT22;31474;45.332;10.230;2023-07-22T12:23:59;27.60;99.90
45765;DHT22;31474;45.332;10.230;2023-07-22T12:26:25;27.70;99.90
45765;DHT22;31474;45.332;10.230;2023-07-22T12:28:51;27.80;99.90
45765;DHT22;31474;45.332;10.230;2023-07-22T12:31:17;27.80;99.90
45765;DHT22;31474;45.332;10.230;2023-07-22T12:33:43;27.80;99.90
45765;DHT22;31474;45.332;10.230;2023-07-22T12:36:09;28.00;99.90
45765;DHT22;31474;45.332;10.230;2023-07-22T12:38:34;28.00;99.90
45765;DHT22;31474;45.332;10.230;2023-07-22T12:41:01;27.90;99.90
45765;DHT22;31474;45.332;10.230;2023-07-22T12:43:26;28.00;99.90
45765;DHT22;31474;45.332;10.230;2023-07-22T12:45:52;28.10;99.90
45765;DHT22;31474;45.332;10.230;2023-07-22T12:48:18;28.00;99.90
45765;DHT22;31474;45.332;10.230;2023-07-22T12:50:44;28.00;99.90
45765;DHT22;31474;45.332;10.230;2023-07-22T12:53:10;27.90;99.90
45765;DHT22;31474;45.332;10.230;2023-07-22T12:55:35;27.90;99.90
45765;DHT22;31474;45.332;10.230;2023-07-22T12:58:01;28.00;99.90
45765;DHT22;31474;45.332;10.230;2023-07-22T13:00:28;28.10;99.90
45765;DHT22;31474;45.332;10.230;2023-07-22T13:02:54;28.00;99.90
45765;DHT22;31474;45.332;10.230;2023-07-22T13:05:19;28.10;99.90
45765;DHT22;31474;45.332;10.230;2023-07-22T13:07:45;28.20;99.90
45765;DHT22;31474;45.332;10.230;2023-07-22T13:10:11;28.30;99.90
45765;DHT22;31474;45.332;10.230;2023-07-22T13:12:39;28.30;99.90
45765;DHT22;31474;45.332;10.230;2023-07-22T13:15:05;28.50;99.90
45765;DHT22;31474;45.332;10.230;2023-07-22T13:17:31;28.50;99.90
45765;DHT22;31474;45.332;10.230;2023-07-22T13:19:57;28.50;99.90
45765;DHT22;31474;45.332;10.230;2023-07-22T13:22:23;28.60;99.90
45765;DHT22;31474;45.332;10.230;2023-07-22T13:24:48;28.70;99.90
45765;DHT22;31474;45.332;10.230;2023-07-22T13:27:14;28.70;99.90
45765;DHT22;31474;45.332;10.230;2023-07-22T13:29:40;28.60;99.90
45765;DHT22;31474;45.332;10.230;2023-07-22T13:32:06;28.60;99.90
45765;DHT22;31474;45.332;10.230;2023-07-22T13:34:32;28.70;99.90
45765;DHT22;31474;45.332;10.230;2023-07-22T13:36:58;28.70;99.90
45765;DHT22;31474;45.332;10.230;2023-07-22T13:39:23;28.80;99.90
45765;DHT22;31474;45.332;10.230;2023-07-22T13:41:49;28.80;99.90
45765;DHT22;31474;45.332;10.230;2023-07-22T13:44:16;28.70;99.90
45765;DHT22;31474;45.332;10.230;2023-07-22T13:46:41;28.70;99.90
45765;DHT22;31474;45.332;10.230;2023-07-22T13:49:07;28.70;99.90
45765;DHT22;31474;45.332;10.230;2023-07-22T13:51:33;28.70;99.90
45765;DHT22;31474;45.332;10.230;2023-07-22T13:53:59;28.70;99.90
45765;DHT22;31474;45.332;10.230;2023-07-22T13:56:25;28.70;99.90
45765;DHT22;31474;45.332;10.230;2023-07-22T13:58:50;28.70;99.90
45765;DHT22;31474;45.332;10.230;2023-07-22T14:01:17;28.70;99.90
45765;DHT22;31474;45.332;10.230;2023-07-22T14:03:43;28.80;99.90
45765;DHT22;31474;45.332;10.230;2023-07-22T14:06:09;28.80;99.90
45765;DHT22;31474;45.332;10.230;2023-07-22T14:08:34;28.80;99.90
45765;DHT22;31474;45.332;10.230;2023-07-22T14:11:00;28.90;99.90
45765;DHT22;31474;45.332;10.230;2023-07-22T14:13:25;28.90;99.90
45765;DHT22;31474;45.332;10.230;2023-07-22T14:15:51;28.70;99.90
45765;DHT22;31474;45.332;10.230;2023-07-22T14:18:18;28.70;99.90
45765;DHT22;31474;45.332;10.230;2023-07-22T14:20:44;28.80;99.90
45765;DHT22;31474;45.332;10.230;2023-07-22T14:23:11;28.80;99.90
45765;DHT22;31474;45.332;10.230;2023-07-22T14:25:37;28.70;99.90
45765;DHT22;31474;45.332;10.230;2023-07-22T14:28:02;28.70;99.90
45765;DHT22;31474;45.332;10.230;2023-07-22T14:30:28;28.60;99.90
45765;DHT22;31474;45.332;10.230;2023-07-22T14:32:54;28.60;99.90
45765;DHT22;31474;45.332;10.230;2023-07-22T14:35:21;28.70;99.90
45765;DHT22;31474;45.332;10.230;2023-07-22T14:37:46;28.70;99.90
45765;DHT22;31474;45.332;10.230;2023-07-22T14:40:12;28.70;99.90
45765;DHT22;31474;45.332;10.230;2023-07-22T14:42:38;28.70;99.90
45765;DHT22;31474;45.332;10.230;2023-07-22T14:45:04;28.80;99.90
45765;DHT22;31474;45.332;10.230;2023-07-22T14:47:30;28.90;99.90
45765;DHT22;31474;45.332;10.230;2023-07-22T14:49:56;28.80;99.90
45765;DHT22;31474;45.332;10.230;2023-07-22T14:52:22;28.90;99.90
45765;DHT22;31474;45.332;10.230;2023-07-22T14:54:48;29.00;99.90
45765;DHT22;31474;45.332;10.230;2023-07-22T14:57:16;28.90;99.90
45765;DHT22;31474;45.332;10.230;2023-07-22T14:59:41;28.90;99.90
45765;DHT22;31474;45.332;10.230;2023-07-22T15:02:07;29.00;99.90
45765;DHT22;31474;45.332;10.230;2023-07-22T15:04:33;29.10;99.90
45765;DHT22;31474;45.332;10.230;2023-07-22T15:06:58;29.10;99.90
45765;DHT22;31474;45.332;10.230;2023-07-22T15:09:24;29.00;99.90
45765;DHT22;31474;45.332;10.230;2023-07-22T15:11:49;29.00;99.90
45765;DHT22;31474;45.332;10.230;2023-07-22T15:14:15;29.00;99.90
45765;DHT22;31474;45.332;10.230;2023-07-22T15:16:41;29.10;99.90
45765;DHT22;31474;45.332;10.230;2023-07-22T15:19:07;29.00;99.90
45765;DHT22;31474;45.332;10.230;2023-07-22T15:21:33;29.00;99.90